KCSV/CSV METAR and TAF weather

Enter ICAO airport designator
Station Type Date Time Source
KCSV METAR 2020/12/05 23:53 UTC NOAA

KCSV 052353Z AUTO 25003KT 10SM CLR 04/01 A3007 RMK AO2 SLP192 T00390006 10083 20039 53003


Station Type Date Time Source
KCSV Decoded METAR 2020/12/05 23:53 UTC NOAA

CROSSVILLE MEMORIAL AIRPORT , TN, United States (KCSV) 35-57N 85-05W 570M
Dec 05, 2020 - 06:53 PM EST / 2020.12.05 2353 UTC
Wind: from the WSW (250 degrees) at 3 MPH (3 KT):0
Visibility: 10 mile(s):0
Sky conditions: clear
Temperature: 39.0 F (3.9 C)
Dew Point: 33.1 F (0.6 C)
Relative Humidity: 79%
Pressure (altimeter): 30.07 in. Hg (1018 hPa)
Pressure tendency: 0.01 inches (0.3 hPa) higher than three hours ago
ob: KCSV 052353Z AUTO 25003KT 10SM CLR 04/01 A3007 RMK AO2 SLP192 T00390006 10083 20039 53003
cycle: 0

Station Type Date Time Source
KCSV TAF 2020/12/05 18:36 UTC NOAA

TAF KCSV 051732Z 0518/0618 28008KT P6SM SKC
FM060600 00000KT 2SM BR SKC
FM061600 19002KT P6SM SKC

Example: see airport list